createdAt,value
2022-11-16T00:00:01.557Z,89.39
2022-11-16T00:02:53.669Z,89.49
2022-11-16T00:05:27.023Z,89.87
2022-11-16T00:07:58.032Z,89.72
2022-11-16T00:10:26.126Z,89.63
2022-11-16T00:12:54.222Z,89.68
2022-11-16T00:15:22.427Z,89.44
2022-11-16T00:17:50.562Z,89.73
2022-11-16T00:20:18.869Z,89.53
2022-11-16T00:22:46.983Z,89.80
2022-11-16T00:25:15.105Z,89.50
2022-11-16T00:27:43.194Z,89.70
2022-11-16T00:30:12.124Z,90.04
2022-11-16T00:32:40.259Z,89.90
2022-11-16T00:35:09.198Z,90.00
2022-11-16T00:37:37.305Z,89.79
2022-11-16T00:40:06.980Z,89.90
2022-11-16T00:42:35.051Z,89.66
2022-11-16T00:45:04.203Z,89.80
2022-11-16T00:47:32.327Z,90.05
2022-11-16T00:50:00.529Z,90.24
2022-11-16T00:52:28.675Z,90.02
2022-11-16T00:54:57.286Z,90.05
2022-11-16T00:57:25.567Z,90.11
2022-11-16T00:59:53.973Z,90.15
2022-11-16T01:02:22.427Z,90.27
2022-11-16T01:04:50.675Z,90.24
2022-11-16T01:07:18.853Z,89.80
2022-11-16T01:09:48.726Z,89.80
2022-11-16T01:12:18.494Z,89.75
2022-11-16T01:14:48.011Z,89.74
2022-11-16T01:17:16.219Z,89.92
2022-11-16T01:19:44.368Z,89.76
2022-11-16T01:22:12.678Z,89.98
2022-11-16T01:24:41.248Z,90.07
2022-11-16T01:27:09.471Z,89.76
2022-11-16T01:29:40.908Z,89.70
2022-11-16T01:32:09.155Z,89.97
2022-11-16T01:34:38.188Z,90.01
2022-11-16T01:37:21.363Z,90.04
2022-11-16T01:39:51.243Z,89.96
2022-11-16T01:42:25.866Z,89.65
2022-11-16T01:45:01.393Z,89.74
2022-11-16T01:47:29.946Z,89.78
2022-11-16T01:50:13.302Z,89.88
2022-11-16T01:52:54.409Z,89.72
2022-11-16T01:55:24.095Z,89.51
2022-11-16T01:58:42.327Z,89.37
2022-11-16T02:01:24.625Z,89.44
2022-11-16T02:03:54.515Z,89.40
2022-11-16T02:07:23.572Z,89.30
2022-11-16T02:10:35.670Z,89.30
2022-11-16T02:13:22.585Z,89.31
2022-11-16T02:16:46.976Z,89.20
2022-11-16T02:19:54.808Z,89.03
2022-11-16T02:22:57.701Z,89.23
2022-11-16T02:25:53.831Z,88.97
2022-11-16T02:28:50.272Z,88.90
2022-11-16T02:31:30.603Z,88.99
2022-11-16T02:34:00.848Z,88.78
2022-11-16T02:36:28.996Z,88.84
2022-11-16T02:39:10.610Z,88.83
2022-11-16T02:41:42.988Z,88.94
2022-11-16T02:44:46.558Z,88.87
2022-11-16T02:47:22.298Z,88.78
2022-11-16T02:50:00.448Z,88.72
2022-11-16T02:52:29.520Z,88.49
2022-11-16T02:54:57.982Z,88.37
2022-11-16T02:57:34.978Z,88.47
2022-11-16T03:00:06.606Z,88.83
2022-11-16T03:03:14.350Z,88.26
2022-11-16T03:05:58.501Z,88.12
2022-11-16T03:08:36.580Z,88.26
2022-11-16T03:11:27.800Z,88.58
2022-11-16T03:14:02.650Z,88.45
2022-11-16T03:16:44.847Z,88.06
2022-11-16T03:19:23.904Z,88.06
2022-11-16T03:22:18.389Z,88.32
2022-11-16T03:24:47.502Z,88.82
2022-11-16T03:27:30.289Z,88.34
2022-11-16T03:30:13.838Z,88.51
2022-11-16T03:33:22.249Z,88.18
2022-11-16T03:36:33.883Z,88.50
2022-11-16T03:39:10.660Z,88.27
2022-11-16T03:41:44.314Z,88.15
2022-11-16T03:44:15.371Z,88.17
2022-11-16T03:46:45.555Z,88.12
2022-11-16T03:49:14.479Z,87.99
2022-11-16T03:51:43.363Z,88.06
2022-11-16T03:54:11.600Z,88.27
2022-11-16T03:56:40.121Z,88.18
2022-11-16T03:59:09.423Z,88.23
2022-11-16T04:01:43.272Z,88.20
2022-11-16T04:04:33.859Z,88.00
2022-11-16T04:07:20.904Z,88.31
2022-11-16T04:10:07.900Z,88.45
2022-11-16T04:12:55.040Z,88.11
2022-11-16T04:15:41.714Z,88.26
2022-11-16T04:18:29.172Z,88.49
2022-11-16T04:21:15.795Z,88.19
2022-11-16T04:24:03.487Z,88.05
2022-11-16T04:26:53.272Z,88.11
2022-11-16T04:29:21.474Z,88.00
2022-11-16T04:32:08.701Z,88.18
2022-11-16T04:34:55.342Z,88.00
2022-11-16T04:37:42.775Z,87.77
2022-11-16T04:40:12.290Z,88.07
2022-11-16T04:42:40.428Z,88.08
2022-11-16T04:45:29.009Z,87.60
2022-11-16T04:47:57.217Z,87.94
2022-11-16T04:50:28.552Z,87.91
2022-11-16T04:52:57.188Z,87.81
2022-11-16T04:55:25.429Z,88.13
2022-11-16T04:57:54.394Z,87.98
2022-11-16T05:00:23.195Z,87.96
2022-11-16T05:02:52.423Z,87.76
2022-11-16T05:05:23.354Z,88.01
2022-11-16T05:07:52.877Z,88.10
2022-11-16T05:10:25.237Z,88.04
2022-11-16T05:12:53.776Z,88.02
2022-11-16T05:15:22.292Z,88.37
2022-11-16T05:17:51.461Z,88.22
2022-11-16T05:20:41.176Z,87.90
2022-11-16T05:23:29.487Z,88.04
2022-11-16T05:25:59.785Z,88.05
2022-11-16T05:28:28.567Z,88.05
2022-11-16T05:30:56.983Z,88.18
2022-11-16T05:33:25.181Z,87.87
2022-11-16T05:35:53.440Z,88.05
2022-11-16T05:38:22.421Z,88.11
2022-11-16T05:40:53.428Z,88.28
2022-11-16T05:43:21.812Z,88.13
2022-11-16T05:45:59.957Z,87.97
2022-11-16T05:48:28.236Z,88.14
2022-11-16T05:51:00.534Z,88.22
2022-11-16T05:53:30.558Z,88.19
2022-11-16T05:56:27.594Z,88.14
2022-11-16T05:59:06.040Z,88.26
2022-11-16T06:01:34.490Z,88.48
2022-11-16T06:04:04.379Z,88.40
2022-11-16T06:06:32.899Z,88.47
2022-11-16T06:09:03.263Z,88.65
2022-11-16T06:11:36.037Z,88.51
2022-11-16T06:14:05.877Z,88.64
2022-11-16T06:16:34.784Z,88.43
2022-11-16T06:19:04.580Z,88.57
2022-11-16T06:21:33.137Z,88.62
2022-11-16T06:24:08.865Z,88.67
2022-11-16T06:26:37.439Z,88.71
2022-11-16T06:29:05.833Z,88.24
2022-11-16T06:31:34.736Z,88.33
2022-11-16T06:34:03.998Z,88.30
2022-11-16T06:36:32.137Z,88.67
2022-11-16T06:39:03.725Z,88.72
2022-11-16T06:41:40.180Z,88.62
2022-11-16T06:44:10.243Z,88.70
2022-11-16T06:46:39.558Z,88.62
2022-11-16T06:49:07.713Z,88.49
2022-11-16T06:51:36.145Z,88.74
2022-11-16T06:54:06.393Z,88.45
2022-11-16T06:56:35.522Z,88.53
2022-11-16T06:59:03.986Z,88.55
2022-11-16T07:01:32.250Z,88.73
2022-11-16T07:04:04.983Z,88.53
2022-11-16T07:06:33.245Z,88.38
2022-11-16T07:09:01.760Z,88.42
2022-11-16T07:11:31.849Z,88.86
2022-11-16T07:14:00.747Z,88.82
2022-11-16T07:16:29.746Z,88.85
2022-11-16T07:19:00.819Z,88.97
2022-11-16T07:21:30.836Z,88.89
2022-11-16T07:23:59.406Z,88.74
2022-11-16T07:26:28.940Z,88.69
2022-11-16T07:29:01.766Z,88.87
2022-11-16T07:31:30.921Z,88.85
2022-11-16T07:34:54.284Z,88.79
2022-11-16T07:37:22.591Z,88.85
2022-11-16T07:39:50.875Z,88.65
2022-11-16T07:42:19.028Z,88.76
2022-11-16T07:45:16.458Z,88.53
2022-11-16T07:47:53.338Z,88.38
2022-11-16T07:51:08.703Z,88.67
2022-11-16T07:53:41.834Z,88.51
2022-11-16T07:56:11.767Z,88.74
2022-11-16T07:58:41.368Z,88.32
2022-11-16T08:01:15.994Z,88.74
2022-11-16T08:03:46.722Z,88.77
2022-11-16T08:06:23.823Z,88.61
2022-11-16T08:08:57.802Z,88.84
2022-11-16T08:11:27.259Z,88.77
2022-11-16T08:13:57.540Z,88.50
2022-11-16T08:16:25.827Z,88.36
2022-11-16T08:19:01.273Z,88.51
2022-11-16T08:21:29.818Z,88.47
2022-11-16T08:23:58.854Z,88.34
2022-11-16T08:26:27.797Z,88.32
2022-11-16T08:29:00.442Z,88.62
2022-11-16T08:31:31.538Z,88.87
2022-11-16T08:34:18.397Z,88.74
2022-11-16T08:36:48.536Z,88.70
2022-11-16T08:39:18.965Z,88.74
2022-11-16T08:41:47.132Z,88.45
2022-11-16T08:44:16.059Z,88.29
2022-11-16T08:46:47.636Z,88.15
2022-11-16T08:49:29.210Z,87.76
2022-11-16T08:51:57.875Z,88.10
2022-11-16T08:54:29.821Z,88.10
2022-11-16T08:56:58.241Z,88.04
2022-11-16T08:59:26.790Z,87.93
2022-11-16T09:01:57.220Z,88.07
2022-11-16T09:04:25.544Z,87.69
2022-11-16T09:06:54.897Z,88.15
2022-11-16T09:09:23.237Z,87.73
2022-11-16T09:11:53.704Z,87.50
2022-11-16T09:14:22.007Z,87.52
2022-11-16T09:16:50.445Z,87.36
2022-11-16T09:19:19.004Z,87.20
2022-11-16T09:21:47.105Z,86.93
2022-11-16T09:24:15.186Z,86.90
2022-11-16T09:26:43.938Z,86.45
2022-11-16T09:29:14.570Z,86.18
2022-11-16T09:31:42.757Z,86.02
2022-11-16T09:34:11.401Z,86.27
2022-11-16T09:36:39.615Z,85.84
2022-11-16T09:39:29.615Z,85.71
2022-11-16T09:42:04.621Z,85.75
2022-11-16T09:45:12.417Z,85.80
2022-11-16T09:47:50.523Z,85.71
2022-11-16T09:50:43.422Z,85.64
2022-11-16T09:53:25.911Z,85.35
2022-11-16T09:55:58.594Z,85.27
2022-11-16T09:58:40.830Z,84.93
2022-11-16T10:01:41.458Z,84.70
2022-11-16T10:04:36.540Z,84.74
2022-11-16T10:07:43.629Z,84.88
2022-11-16T10:10:18.068Z,84.90
2022-11-16T10:13:03.202Z,84.75
2022-11-16T10:16:12.905Z,84.77
2022-11-16T10:19:03.377Z,84.83
2022-11-16T10:22:02.182Z,84.88
2022-11-16T10:24:42.339Z,84.89
2022-11-16T10:27:28.514Z,84.70
2022-11-16T10:30:10.094Z,84.60
2022-11-16T10:33:09.656Z,84.53
2022-11-16T10:35:45.550Z,84.28
2022-11-16T10:38:18.490Z,84.25
2022-11-16T10:40:52.479Z,84.11
2022-11-16T10:43:25.659Z,84.24
2022-11-16T10:45:58.082Z,84.06
2022-11-16T10:49:03.074Z,84.19
2022-11-16T10:51:31.350Z,84.10
2022-11-16T10:53:59.521Z,83.98
2022-11-16T10:56:40.565Z,83.34
2022-11-16T10:59:14.427Z,83.37
2022-11-16T11:01:49.942Z,83.30
2022-11-16T11:04:23.678Z,83.54
2022-11-16T11:07:22.011Z,83.61
2022-11-16T11:09:55.086Z,83.61
2022-11-16T11:12:38.114Z,83.24
2022-11-16T11:15:12.116Z,83.30
2022-11-16T11:17:47.290Z,83.44
2022-11-16T11:20:15.386Z,83.39
2022-11-16T11:22:58.663Z,83.39
2022-11-16T11:25:32.902Z,83.43
2022-11-16T11:28:46.599Z,83.45
2022-11-16T11:31:45.150Z,83.30
2022-11-16T11:34:22.801Z,83.39
2022-11-16T11:37:21.742Z,83.55
2022-11-16T11:40:17.563Z,83.35
2022-11-16T11:42:56.492Z,83.41
2022-11-16T11:45:36.476Z,83.74
2022-11-16T11:48:22.569Z,83.74
2022-11-16T11:50:56.114Z,83.72
2022-11-16T11:53:44.399Z,84.00
2022-11-16T11:56:14.202Z,83.92
2022-11-16T11:58:44.174Z,84.10
2022-11-16T12:01:41.027Z,84.22
2022-11-16T12:04:43.010Z,84.32
2022-11-16T12:07:37.160Z,84.61
2022-11-16T12:10:32.588Z,84.44
2022-11-16T12:13:18.603Z,84.60
2022-11-16T12:16:11.417Z,84.68
2022-11-16T12:18:50.226Z,84.60
2022-11-16T12:21:49.952Z,84.66
2022-11-16T12:25:02.226Z,85.04
2022-11-16T12:28:04.421Z,84.97
2022-11-16T12:30:47.317Z,85.14
2022-11-16T12:34:01.351Z,85.20
2022-11-16T12:37:07.718Z,85.14
2022-11-16T12:39:45.545Z,85.33
2022-11-16T12:42:41.051Z,85.37
2022-11-16T12:45:36.022Z,85.46
2022-11-16T12:48:26.011Z,85.45
2022-11-16T12:51:03.106Z,85.46
2022-11-16T12:53:52.698Z,85.67
2022-11-16T12:56:39.216Z,85.51
2022-11-16T12:59:35.369Z,85.79
2022-11-16T13:02:10.802Z,85.74
2022-11-16T13:04:50.752Z,85.95
2022-11-16T13:07:31.786Z,85.85
2022-11-16T13:10:17.252Z,86.06
2022-11-16T13:12:52.706Z,85.95
2022-11-16T13:15:34.976Z,85.83
2022-11-16T13:18:07.950Z,85.80
2022-11-16T13:20:43.892Z,85.86
2022-11-16T13:23:37.526Z,86.01
2022-11-16T13:26:23.867Z,86.11
2022-11-16T13:29:17.956Z,86.06
2022-11-16T13:31:58.312Z,86.07
2022-11-16T13:34:32.838Z,86.32
2022-11-16T13:37:01.012Z,86.42
2022-11-16T13:39:50.869Z,86.41
2022-11-16T13:42:19.109Z,86.35
2022-11-16T13:44:51.529Z,86.33
2022-11-16T13:47:28.674Z,86.33
2022-11-16T13:50:03.496Z,86.33
2022-11-16T13:53:57.703Z,86.29
2022-11-16T13:55:59.168Z,86.28
2022-11-16T13:58:29.958Z,86.32
2022-11-16T14:01:07.475Z,86.14
2022-11-16T14:03:40.931Z,86.26
2022-11-16T14:06:24.213Z,86.22
2022-11-16T14:08:55.221Z,86.41
2022-11-16T14:11:40.512Z,86.22
2022-11-16T14:15:03.954Z,86.10
2022-11-16T14:18:08.718Z,86.13
2022-11-16T14:20:57.224Z,86.12
2022-11-16T14:24:13.788Z,86.30
2022-11-16T14:27:07.695Z,86.15
2022-11-16T14:30:05.805Z,86.31
2022-11-16T14:32:43.318Z,86.30
2022-11-16T14:35:28.857Z,86.17
2022-11-16T14:38:06.486Z,86.23
2022-11-16T14:40:46.468Z,86.22
2022-11-16T14:43:29.795Z,86.25
2022-11-16T14:46:09.474Z,86.34
2022-11-16T14:48:46.019Z,86.43
2022-11-16T14:51:33.043Z,86.41
2022-11-16T14:54:11.612Z,86.54
2022-11-16T14:57:00.002Z,86.54
2022-11-16T14:59:30.536Z,86.51
2022-11-16T15:02:05.991Z,86.49
2022-11-16T15:04:34.259Z,86.54
2022-11-16T15:07:05.205Z,86.61
2022-11-16T15:09:39.236Z,86.57
2022-11-16T15:12:35.242Z,86.61
2022-11-16T15:15:15.488Z,86.68
2022-11-16T15:17:51.733Z,86.74
2022-11-16T15:20:26.160Z,86.81
2022-11-16T15:22:58.312Z,86.90
2022-11-16T15:25:43.207Z,86.96
2022-11-16T15:28:26.422Z,87.16
2022-11-16T15:31:06.533Z,86.95
2022-11-16T15:33:42.590Z,87.07
2022-11-16T15:36:39.047Z,87.13
2022-11-16T15:39:18.813Z,87.05
2022-11-16T15:41:47.576Z,87.01
2022-11-16T15:44:20.350Z,87.13
2022-11-16T15:46:53.260Z,87.12
2022-11-16T15:49:33.838Z,87.30
2022-11-16T15:52:02.552Z,87.22
2022-11-16T15:55:14.467Z,87.13
2022-11-16T15:57:46.438Z,87.34
2022-11-16T16:00:23.078Z,87.32
2022-11-16T16:02:51.827Z,87.23
2022-11-16T16:05:32.652Z,87.36
2022-11-16T16:08:00.855Z,87.31
2022-11-16T16:10:29.415Z,87.31
2022-11-16T16:13:02.365Z,87.31
2022-11-16T16:15:36.060Z,87.44
2022-11-16T16:18:36.851Z,87.31
2022-11-16T16:21:05.096Z,87.31
2022-11-16T16:23:33.628Z,87.49
2022-11-16T16:26:05.196Z,87.60
2022-11-16T16:28:33.335Z,87.69
2022-11-16T16:31:01.802Z,87.60
2022-11-16T16:33:30.213Z,87.69
2022-11-16T16:35:58.333Z,87.65
2022-11-16T16:38:26.506Z,87.63
2022-11-16T16:41:03.675Z,87.72
2022-11-16T16:43:32.765Z,87.61
2022-11-16T16:46:03.003Z,87.65
2022-11-16T16:48:31.227Z,87.53
2022-11-16T16:50:59.368Z,87.73
2022-11-16T16:53:27.497Z,87.60
2022-11-16T16:55:55.676Z,87.53
2022-11-16T16:58:23.863Z,87.63
2022-11-16T17:00:56.951Z,87.54
2022-11-16T17:03:28.105Z,87.63
2022-11-16T17:06:03.095Z,87.59
2022-11-16T17:08:39.000Z,87.74
2022-11-16T17:11:07.177Z,87.48
2022-11-16T17:13:35.719Z,87.56
2022-11-16T17:16:05.961Z,87.61
2022-11-16T17:18:34.131Z,87.70
2022-11-16T17:21:07.860Z,87.73
2022-11-16T17:23:37.416Z,87.69
2022-11-16T17:26:08.399Z,87.81
2022-11-16T17:28:36.685Z,87.93
2022-11-16T17:31:10.699Z,87.93
2022-11-16T17:33:42.142Z,87.94
2022-11-16T17:36:14.326Z,88.09
2022-11-16T17:38:42.587Z,88.02
2022-11-16T17:41:24.090Z,88.01
2022-11-16T17:43:54.376Z,88.26
2022-11-16T17:46:25.738Z,88.28
2022-11-16T17:48:53.833Z,88.70
2022-11-16T17:51:25.144Z,88.40
2022-11-16T17:53:53.562Z,88.48
2022-11-16T17:56:26.132Z,88.51
2022-11-16T17:58:56.065Z,88.45
2022-11-16T18:01:25.422Z,88.67
2022-11-16T18:03:53.842Z,88.66
2022-11-16T18:06:25.179Z,88.78
2022-11-16T18:08:53.612Z,88.68
2022-11-16T18:11:25.101Z,88.74
2022-11-16T18:13:56.058Z,88.86
2022-11-16T18:16:27.841Z,88.75
2022-11-16T18:19:02.154Z,89.20
2022-11-16T18:21:31.347Z,89.59
2022-11-16T18:24:00.210Z,89.53
2022-11-16T18:26:28.347Z,89.67
2022-11-16T18:28:56.514Z,89.60
2022-11-16T18:31:25.407Z,89.48
2022-11-16T18:33:53.500Z,89.13
2022-11-16T18:36:22.844Z,89.33
2022-11-16T18:38:51.153Z,89.46
2022-11-16T18:41:29.279Z,89.45
2022-11-16T18:44:02.124Z,89.57
2022-11-16T18:46:32.677Z,89.54
2022-11-16T18:49:01.030Z,89.57
2022-11-16T18:51:29.707Z,89.77
2022-11-16T18:53:58.003Z,89.73
2022-11-16T18:56:27.261Z,89.72
2022-11-16T18:58:55.400Z,89.68
2022-11-16T19:01:27.496Z,89.81
2022-11-16T19:03:56.522Z,89.79
2022-11-16T19:06:24.639Z,89.63
2022-11-16T19:08:59.611Z,89.66
2022-11-16T19:11:28.807Z,89.61
2022-11-16T19:14:00.797Z,89.62
2022-11-16T19:16:29.415Z,89.67
2022-11-16T19:18:57.548Z,89.45
2022-11-16T19:21:25.769Z,89.61
2022-11-16T19:23:56.156Z,89.59
2022-11-16T19:26:27.111Z,89.38
2022-11-16T19:28:55.726Z,89.34
2022-11-16T19:31:29.894Z,89.45
2022-11-16T19:34:05.095Z,89.42
2022-11-16T19:36:36.325Z,89.41
2022-11-16T19:39:06.002Z,89.35
2022-11-16T19:41:34.120Z,89.44
2022-11-16T19:44:02.410Z,89.45
2022-11-16T19:46:33.215Z,89.66
2022-11-16T19:49:01.811Z,89.43
2022-11-16T19:51:33.038Z,89.39
2022-11-16T19:54:02.724Z,89.44
2022-11-16T19:56:31.221Z,89.53
2022-11-16T19:59:00.411Z,89.61
2022-11-16T20:01:29.391Z,89.62
2022-11-16T20:04:03.457Z,89.67
2022-11-16T20:06:35.410Z,89.47
2022-11-16T20:09:09.415Z,89.62
2022-11-16T20:11:40.179Z,89.65
2022-11-16T20:14:11.951Z,89.75
2022-11-16T20:16:43.226Z,89.97
2022-11-16T20:19:11.710Z,89.68
2022-11-16T20:21:42.862Z,89.70
2022-11-16T20:35:17.758Z,89.78
2022-11-16T20:37:47.700Z,89.81
2022-11-16T20:40:15.933Z,89.63
2022-11-16T20:42:44.022Z,89.78
2022-11-16T20:45:12.137Z,89.83
2022-11-16T20:47:40.226Z,89.89
2022-11-16T20:50:08.891Z,89.81
2022-11-16T20:52:42.290Z,89.83
2022-11-16T20:55:11.676Z,89.72
2022-11-16T20:57:39.803Z,89.78
2022-11-16T21:00:08.855Z,89.84
2022-11-16T21:02:36.980Z,89.69
2022-11-16T21:05:05.775Z,89.73
2022-11-16T21:07:34.544Z,89.87
2022-11-16T21:10:21.016Z,89.88
2022-11-16T21:13:08.049Z,89.83
2022-11-16T21:15:36.214Z,89.84
2022-11-16T21:18:04.554Z,89.82
2022-11-16T21:20:32.686Z,89.96
2022-11-16T21:23:00.825Z,89.88
2022-11-16T21:25:29.077Z,89.89
2022-11-16T21:27:57.197Z,90.05
2022-11-16T21:30:25.321Z,89.83
2022-11-16T21:32:53.429Z,89.86
2022-11-16T21:35:21.601Z,89.90
2022-11-16T21:37:49.710Z,89.89
2022-11-16T21:40:17.849Z,89.97
2022-11-16T21:42:47.550Z,89.90
2022-11-16T21:45:15.661Z,90.00
2022-11-16T21:47:43.783Z,90.00
2022-11-16T21:53:00.730Z,89.95
2022-11-16T21:55:29.058Z,90.14
2022-11-16T21:58:00.826Z,89.99
2022-11-16T22:00:29.782Z,89.97
2022-11-16T22:02:57.917Z,89.79
2022-11-16T22:05:44.835Z,89.94
2022-11-16T22:08:12.989Z,90.00
2022-11-16T22:10:41.169Z,90.08
2022-11-16T22:13:09.265Z,90.05
2022-11-16T22:15:37.358Z,90.16
2022-11-16T22:18:05.746Z,90.17
2022-11-16T22:20:34.112Z,90.15
2022-11-16T22:23:02.232Z,90.08
2022-11-16T22:25:30.387Z,90.20
2022-11-16T22:28:19.800Z,90.02
2022-11-16T22:30:51.362Z,90.27
2022-11-16T22:33:20.646Z,90.38
2022-11-16T22:35:48.764Z,90.32
2022-11-16T22:38:16.870Z,90.20
2022-11-16T22:40:52.797Z,90.36
2022-11-16T22:43:31.351Z,90.21
2022-11-16T22:46:02.565Z,90.30
2022-11-16T22:48:36.569Z,90.29
2022-11-16T22:51:19.603Z,90.17
2022-11-16T22:53:51.965Z,90.18
2022-11-16T22:56:20.162Z,90.17
2022-11-16T22:58:48.335Z,90.30
2022-11-16T23:01:16.760Z,90.16
2022-11-16T23:03:45.139Z,90.29
2022-11-16T23:06:13.675Z,90.23
2022-11-16T23:08:41.972Z,90.00
2022-11-16T23:11:38.141Z,90.08
2022-11-16T23:14:29.595Z,90.22
2022-11-16T23:16:58.057Z,90.15
2022-11-16T23:19:45.298Z,90.19
2022-11-16T23:22:39.003Z,90.18
2022-11-16T23:25:28.619Z,90.11
2022-11-16T23:28:06.736Z,90.02
2022-11-16T23:30:36.776Z,90.15
2022-11-16T23:33:04.862Z,90.12
2022-11-16T23:35:33.523Z,90.12
2022-11-16T23:38:06.482Z,90.09
2022-11-16T23:40:40.067Z,90.03
2022-11-16T23:43:28.789Z,90.03
2022-11-16T23:45:57.024Z,89.98
2022-11-16T23:48:25.169Z,90.26
2022-11-16T23:50:53.291Z,90.23
2022-11-16T23:53:21.472Z,90.04
2022-11-16T23:55:49.613Z,90.09
2022-11-16T23:58:17.701Z,89.98
